sensor_id;sensor_type;location;lat;lon;timestamp;P1;P2;P0
77974;PMS5003;67164;51.202;0.278;2023-04-24T00:02:25;13;12;
77974;PMS5003;67164;51.202;0.278;2023-04-24T00:04:51;14;12;
77974;PMS5003;67164;51.202;0.278;2023-04-24T00:07:16;12;12;
77974;PMS5003;67164;51.202;0.278;2023-04-24T00:09:42;14;13;
77974;PMS5003;67164;51.202;0.278;2023-04-24T00:12:08;17;15;
77974;PMS5003;67164;51.202;0.278;2023-04-24T00:14:34;13;11;
77974;PMS5003;67164;51.202;0.278;2023-04-24T00:17:00;13;13;
77974;PMS5003;67164;51.202;0.278;2023-04-24T00:19:25;13;13;
77974;PMS5003;67164;51.202;0.278;2023-04-24T00:21:51;12;12;
77974;PMS5003;67164;51.202;0.278;2023-04-24T00:24:17;13;10;
77974;PMS5003;67164;51.202;0.278;2023-04-24T00:26:43;14;14;
77974;PMS5003;67164;51.202;0.278;2023-04-24T00:29:08;16;15;
77974;PMS5003;67164;51.202;0.278;2023-04-24T00:31:34;13;13;
77974;PMS5003;67164;51.202;0.278;2023-04-24T00:34:00;13;13;
77974;PMS5003;67164;51.202;0.278;2023-04-24T00:36:25;15;14;
77974;PMS5003;67164;51.202;0.278;2023-04-24T00:38:50;19;18;
77974;PMS5003;67164;51.202;0.278;2023-04-24T00:41:16;15;15;
77974;PMS5003;67164;51.202;0.278;2023-04-24T00:43:41;14;14;
77974;PMS5003;67164;51.202;0.278;2023-04-24T00:46:07;18;17;
77974;PMS5003;67164;51.202;0.278;2023-04-24T00:48:32;14;13;
77974;PMS5003;67164;51.202;0.278;2023-04-24T00:50:58;20;15;
77974;PMS5003;67164;51.202;0.278;2023-04-24T00:53:24;20;17;
77974;PMS5003;67164;51.202;0.278;2023-04-24T00:55:50;17;16;
77974;PMS5003;67164;51.202;0.278;2023-04-24T00:58:16;17;16;
77974;PMS5003;67164;51.202;0.278;2023-04-24T01:00:41;15;15;
77974;PMS5003;67164;51.202;0.278;2023-04-24T01:03:07;18;18;
77974;PMS5003;67164;51.202;0.278;2023-04-24T01:05:33;16;16;
77974;PMS5003;67164;51.202;0.278;2023-04-24T01:07:58;18;18;
77974;PMS5003;67164;51.202;0.278;2023-04-24T01:10:24;21;20;
77974;PMS5003;67164;51.202;0.278;2023-04-24T01:12:50;18;18;
77974;PMS5003;67164;51.202;0.278;2023-04-24T01:15:15;17;17;
77974;PMS5003;67164;51.202;0.278;2023-04-24T01:17:41;19;19;
77974;PMS5003;67164;51.202;0.278;2023-04-24T01:20:07;19;17;
77974;PMS5003;67164;51.202;0.278;2023-04-24T01:22:33;17;16;
77974;PMS5003;67164;51.202;0.278;2023-04-24T01:24:58;18;17;
77974;PMS5003;67164;51.202;0.278;2023-04-24T01:27:23;22;22;
77974;PMS5003;67164;51.202;0.278;2023-04-24T01:29:49;18;18;
77974;PMS5003;67164;51.202;0.278;2023-04-24T01:32:14;21;21;
77974;PMS5003;67164;51.202;0.278;2023-04-24T01:34:45;18;18;
77974;PMS5003;67164;51.202;0.278;2023-04-24T01:37:05;20;20;
77974;PMS5003;67164;51.202;0.278;2023-04-24T01:39:31;24;21;
77974;PMS5003;67164;51.202;0.278;2023-04-24T01:41:57;26;23;
77974;PMS5003;67164;51.202;0.278;2023-04-24T01:44:22;23;21;
77974;PMS5003;67164;51.202;0.278;2023-04-24T01:46:47;21;20;
77974;PMS5003;67164;51.202;0.278;2023-04-24T01:49:13;23;19;
77974;PMS5003;67164;51.202;0.278;2023-04-24T01:51:39;22;20;
77974;PMS5003;67164;51.202;0.278;2023-04-24T01:54:04;20;20;
77974;PMS5003;67164;51.202;0.278;2023-04-24T01:56:30;18;18;
77974;PMS5003;67164;51.202;0.278;2023-04-24T01:58:56;19;18;
77974;PMS5003;67164;51.202;0.278;2023-04-24T02:01:23;23;21;
77974;PMS5003;67164;51.202;0.278;2023-04-24T02:03:47;21;21;
77974;PMS5003;67164;51.202;0.278;2023-04-24T02:06:12;18;18;
77974;PMS5003;67164;51.202;0.278;2023-04-24T02:08:38;20;18;
77974;PMS5003;67164;51.202;0.278;2023-04-24T02:11:04;20;19;
77974;PMS5003;67164;51.202;0.278;2023-04-24T02:13:30;18;18;
77974;PMS5003;67164;51.202;0.278;2023-04-24T02:15:55;19;18;
77974;PMS5003;67164;51.202;0.278;2023-04-24T02:18:21;21;21;
77974;PMS5003;67164;51.202;0.278;2023-04-24T02:20:46;19;18;
77974;PMS5003;67164;51.202;0.278;2023-04-24T02:23:12;21;19;
77974;PMS5003;67164;51.202;0.278;2023-04-24T02:25:38;18;16;
77974;PMS5003;67164;51.202;0.278;2023-04-24T02:28:03;16;16;
77974;PMS5003;67164;51.202;0.278;2023-04-24T02:30:29;18;18;
77974;PMS5003;67164;51.202;0.278;2023-04-24T02:32:54;23;22;
77974;PMS5003;67164;51.202;0.278;2023-04-24T02:35:20;22;19;
77974;PMS5003;67164;51.202;0.278;2023-04-24T02:37:46;22;18;
77974;PMS5003;67164;51.202;0.278;2023-04-24T02:40:11;22;20;
77974;PMS5003;67164;51.202;0.278;2023-04-24T02:42:37;22;20;
77974;PMS5003;67164;51.202;0.278;2023-04-24T02:45:03;21;21;
77974;PMS5003;67164;51.202;0.278;2023-04-24T02:47:28;22;22;
77974;PMS5003;67164;51.202;0.278;2023-04-24T02:49:54;21;19;
77974;PMS5003;67164;51.202;0.278;2023-04-24T02:52:20;17;17;
77974;PMS5003;67164;51.202;0.278;2023-04-24T02:54:45;22;22;
77974;PMS5003;67164;51.202;0.278;2023-04-24T02:57:10;19;19;
77974;PMS5003;67164;51.202;0.278;2023-04-24T02:59:36;22;20;
77974;PMS5003;67164;51.202;0.278;2023-04-24T03:02:03;20;19;
77974;PMS5003;67164;51.202;0.278;2023-04-24T03:04:29;18;18;
77974;PMS5003;67164;51.202;0.278;2023-04-24T03:06:54;21;20;
77974;PMS5003;67164;51.202;0.278;2023-04-24T03:09:18;18;18;
77974;PMS5003;67164;51.202;0.278;2023-04-24T03:11:43;16;16;
77974;PMS5003;67164;51.202;0.278;2023-04-24T03:14:09;17;17;
77974;PMS5003;67164;51.202;0.278;2023-04-24T03:16:34;17;17;
77974;PMS5003;67164;51.202;0.278;2023-04-24T03:19:00;15;15;
77974;PMS5003;67164;51.202;0.278;2023-04-24T03:21:26;15;15;
77974;PMS5003;67164;51.202;0.278;2023-04-24T03:23:52;19;18;
77974;PMS5003;67164;51.202;0.278;2023-04-24T03:26:18;21;21;
77974;PMS5003;67164;51.202;0.278;2023-04-24T03:28:43;15;15;
77974;PMS5003;67164;51.202;0.278;2023-04-24T03:31:09;19;19;
77974;PMS5003;67164;51.202;0.278;2023-04-24T03:33:34;18;17;
77974;PMS5003;67164;51.202;0.278;2023-04-24T03:35:59;20;20;
77974;PMS5003;67164;51.202;0.278;2023-04-24T03:38:25;18;16;
77974;PMS5003;67164;51.202;0.278;2023-04-24T03:40:50;17;16;
77974;PMS5003;67164;51.202;0.278;2023-04-24T03:43:16;20;18;
77974;PMS5003;67164;51.202;0.278;2023-04-24T03:45:42;19;19;
77974;PMS5003;67164;51.202;0.278;2023-04-24T03:48:07;22;20;
77974;PMS5003;67164;51.202;0.278;2023-04-24T03:50:33;16;16;
77974;PMS5003;67164;51.202;0.278;2023-04-24T03:52:59;21;21;
77974;PMS5003;67164;51.202;0.278;2023-04-24T03:55:24;16;16;
77974;PMS5003;67164;51.202;0.278;2023-04-24T03:57:50;27;23;
77974;PMS5003;67164;51.202;0.278;2023-04-24T04:00:15;19;19;
77974;PMS5003;67164;51.202;0.278;2023-04-24T04:02:41;20;18;
77974;PMS5003;67164;51.202;0.278;2023-04-24T04:05:07;19;19;
77974;PMS5003;67164;51.202;0.278;2023-04-24T04:07:32;20;20;
77974;PMS5003;67164;51.202;0.278;2023-04-24T04:09:58;15;15;
77974;PMS5003;67164;51.202;0.278;2023-04-24T04:12:23;19;17;
77974;PMS5003;67164;51.202;0.278;2023-04-24T04:14:49;20;17;
77974;PMS5003;67164;51.202;0.278;2023-04-24T04:17:14;14;14;
77974;PMS5003;67164;51.202;0.278;2023-04-24T04:19:40;20;18;
77974;PMS5003;67164;51.202;0.278;2023-04-24T04:22:05;15;15;
77974;PMS5003;67164;51.202;0.278;2023-04-24T04:24:31;19;18;
77974;PMS5003;67164;51.202;0.278;2023-04-24T04:26:56;19;18;
77974;PMS5003;67164;51.202;0.278;2023-04-24T04:29:22;23;23;
77974;PMS5003;67164;51.202;0.278;2023-04-24T04:31:47;18;17;
77974;PMS5003;67164;51.202;0.278;2023-04-24T04:34:13;20;19;
77974;PMS5003;67164;51.202;0.278;2023-04-24T04:36:39;17;17;
77974;PMS5003;67164;51.202;0.278;2023-04-24T04:39:04;19;19;
77974;PMS5003;67164;51.202;0.278;2023-04-24T04:41:30;17;16;
77974;PMS5003;67164;51.202;0.278;2023-04-24T04:43:56;18;18;
77974;PMS5003;67164;51.202;0.278;2023-04-24T04:46:21;20;18;
77974;PMS5003;67164;51.202;0.278;2023-04-24T04:48:47;19;17;
77974;PMS5003;67164;51.202;0.278;2023-04-24T04:51:13;15;15;
77974;PMS5003;67164;51.202;0.278;2023-04-24T04:53:38;18;16;
77974;PMS5003;67164;51.202;0.278;2023-04-24T04:56:04;18;16;
77974;PMS5003;67164;51.202;0.278;2023-04-24T04:58:30;17;17;
77974;PMS5003;67164;51.202;0.278;2023-04-24T05:00:56;19;17;
77974;PMS5003;67164;51.202;0.278;2023-04-24T05:03:21;23;20;
77974;PMS5003;67164;51.202;0.278;2023-04-24T05:05:47;16;16;
77974;PMS5003;67164;51.202;0.278;2023-04-24T05:08:12;13;13;
77974;PMS5003;67164;51.202;0.278;2023-04-24T05:10:37;17;17;
77974;PMS5003;67164;51.202;0.278;2023-04-24T05:13:03;18;18;
77974;PMS5003;67164;51.202;0.278;2023-04-24T05:15:29;17;17;
77974;PMS5003;67164;51.202;0.278;2023-04-24T05:17:55;18;17;
77974;PMS5003;67164;51.202;0.278;2023-04-24T05:20:20;21;20;
77974;PMS5003;67164;51.202;0.278;2023-04-24T05:22:46;15;15;
77974;PMS5003;67164;51.202;0.278;2023-04-24T05:25:11;17;17;
77974;PMS5003;67164;51.202;0.278;2023-04-24T05:27:37;20;19;
77974;PMS5003;67164;51.202;0.278;2023-04-24T05:30:02;17;17;
77974;PMS5003;67164;51.202;0.278;2023-04-24T05:32:27;20;19;
77974;PMS5003;67164;51.202;0.278;2023-04-24T05:37:19;17;16;
77974;PMS5003;67164;51.202;0.278;2023-04-24T05:39:44;18;18;
77974;PMS5003;67164;51.202;0.278;2023-04-24T05:42:10;19;19;
77974;PMS5003;67164;51.202;0.278;2023-04-24T05:44:35;18;18;
77974;PMS5003;67164;51.202;0.278;2023-04-24T05:47:00;19;16;
77974;PMS5003;67164;51.202;0.278;2023-04-24T05:49:26;17;17;
77974;PMS5003;67164;51.202;0.278;2023-04-24T05:51:51;17;17;
77974;PMS5003;67164;51.202;0.278;2023-04-24T05:54:17;20;18;
77974;PMS5003;67164;51.202;0.278;2023-04-24T05:56:43;20;17;
77974;PMS5003;67164;51.202;0.278;2023-04-24T05:59:08;20;14;
77974;PMS5003;67164;51.202;0.278;2023-04-24T06:01:34;21;19;
77974;PMS5003;67164;51.202;0.278;2023-04-24T06:04:00;18;18;
77974;PMS5003;67164;51.202;0.278;2023-04-24T06:06:25;20;17;
77974;PMS5003;67164;51.202;0.278;2023-04-24T06:08:51;17;17;
77974;PMS5003;67164;51.202;0.278;2023-04-24T06:11:17;17;17;
77974;PMS5003;67164;51.202;0.278;2023-04-24T06:13:43;17;17;
77974;PMS5003;67164;51.202;0.278;2023-04-24T06:16:08;19;16;
77974;PMS5003;67164;51.202;0.278;2023-04-24T06:18:35;17;17;
77974;PMS5003;67164;51.202;0.278;2023-04-24T06:21:00;18;18;
77974;PMS5003;67164;51.202;0.278;2023-04-24T06:23:25;19;18;
77974;PMS5003;67164;51.202;0.278;2023-04-24T06:25:51;19;18;
77974;PMS5003;67164;51.202;0.278;2023-04-24T06:28:17;18;17;
77974;PMS5003;67164;51.202;0.278;2023-04-24T06:30:43;17;17;
77974;PMS5003;67164;51.202;0.278;2023-04-24T06:33:08;19;19;
77974;PMS5003;67164;51.202;0.278;2023-04-24T06:35:34;17;15;
77974;PMS5003;67164;51.202;0.278;2023-04-24T06:37:59;18;16;
77974;PMS5003;67164;51.202;0.278;2023-04-24T06:40:25;17;15;
77974;PMS5003;67164;51.202;0.278;2023-04-24T06:42:50;20;20;
77974;PMS5003;67164;51.202;0.278;2023-04-24T06:45:16;15;15;
77974;PMS5003;67164;51.202;0.278;2023-04-24T06:47:42;16;15;
77974;PMS5003;67164;51.202;0.278;2023-04-24T06:50:08;17;16;
77974;PMS5003;67164;51.202;0.278;2023-04-24T06:52:33;18;17;
77974;PMS5003;67164;51.202;0.278;2023-04-24T06:54:59;15;15;
77974;PMS5003;67164;51.202;0.278;2023-04-24T06:57:24;16;16;
77974;PMS5003;67164;51.202;0.278;2023-04-24T06:59:50;15;15;
77974;PMS5003;67164;51.202;0.278;2023-04-24T07:02:16;18;17;
77974;PMS5003;67164;51.202;0.278;2023-04-24T07:04:41;18;16;
77974;PMS5003;67164;51.202;0.278;2023-04-24T07:07:07;17;15;
77974;PMS5003;67164;51.202;0.278;2023-04-24T07:09:33;17;17;
77974;PMS5003;67164;51.202;0.278;2023-04-24T07:11:59;14;14;
77974;PMS5003;67164;51.202;0.278;2023-04-24T07:14:24;15;14;
77974;PMS5003;67164;51.202;0.278;2023-04-24T07:16:50;17;17;
77974;PMS5003;67164;51.202;0.278;2023-04-24T07:19:15;17;17;
77974;PMS5003;67164;51.202;0.278;2023-04-24T07:21:41;21;17;
77974;PMS5003;67164;51.202;0.278;2023-04-24T07:24:06;22;20;
77974;PMS5003;67164;51.202;0.278;2023-04-24T07:26:32;15;15;
77974;PMS5003;67164;51.202;0.278;2023-04-24T07:28:58;17;16;
77974;PMS5003;67164;51.202;0.278;2023-04-24T07:31:24;14;13;
77974;PMS5003;67164;51.202;0.278;2023-04-24T07:33:52;15;15;
77974;PMS5003;67164;51.202;0.278;2023-04-24T07:36:15;17;15;
77974;PMS5003;67164;51.202;0.278;2023-04-24T07:38:41;19;16;
77974;PMS5003;67164;51.202;0.278;2023-04-24T07:41:07;14;14;
77974;PMS5003;67164;51.202;0.278;2023-04-24T07:43:33;16;16;
77974;PMS5003;67164;51.202;0.278;2023-04-24T07:45:59;14;12;
77974;PMS5003;67164;51.202;0.278;2023-04-24T07:48:24;13;13;
77974;PMS5003;67164;51.202;0.278;2023-04-24T07:50:50;13;12;
77974;PMS5003;67164;51.202;0.278;2023-04-24T07:53:16;17;16;
77974;PMS5003;67164;51.202;0.278;2023-04-24T07:55:41;14;14;
77974;PMS5003;67164;51.202;0.278;2023-04-24T07:58:07;12;12;
77974;PMS5003;67164;51.202;0.278;2023-04-24T08:00:33;16;14;
77974;PMS5003;67164;51.202;0.278;2023-04-24T08:02:58;15;13;
77974;PMS5003;67164;51.202;0.278;2023-04-24T08:05:24;11;11;
77974;PMS5003;67164;51.202;0.278;2023-04-24T08:07:50;13;13;
77974;PMS5003;67164;51.202;0.278;2023-04-24T08:10:16;14;12;
77974;PMS5003;67164;51.202;0.278;2023-04-24T08:12:41;12;12;
77974;PMS5003;67164;51.202;0.278;2023-04-24T08:15:07;11;11;
77974;PMS5003;67164;51.202;0.278;2023-04-24T08:17:33;10;10;
77974;PMS5003;67164;51.202;0.278;2023-04-24T08:19:58;12;12;
77974;PMS5003;67164;51.202;0.278;2023-04-24T08:22:24;9;9;
77974;PMS5003;67164;51.202;0.278;2023-04-24T08:24:51;15;12;
77974;PMS5003;67164;51.202;0.278;2023-04-24T08:27:16;10;10;
77974;PMS5003;67164;51.202;0.278;2023-04-24T08:29:42;13;10;
77974;PMS5003;67164;51.202;0.278;2023-04-24T08:32:07;11;11;
77974;PMS5003;67164;51.202;0.278;2023-04-24T08:34:33;12;11;
77974;PMS5003;67164;51.202;0.278;2023-04-24T08:36:59;12;11;
77974;PMS5003;67164;51.202;0.278;2023-04-24T08:39:25;9;9;
77974;PMS5003;67164;51.202;0.278;2023-04-24T08:41:51;10;9;
77974;PMS5003;67164;51.202;0.278;2023-04-24T08:44:16;12;12;
77974;PMS5003;67164;51.202;0.278;2023-04-24T08:46:42;10;10;
77974;PMS5003;67164;51.202;0.278;2023-04-24T08:49:08;14;13;
77974;PMS5003;67164;51.202;0.278;2023-04-24T08:51:34;16;13;
77974;PMS5003;67164;51.202;0.278;2023-04-24T08:53:59;26;16;
77974;PMS5003;67164;51.202;0.278;2023-04-24T08:56:25;24;18;
77974;PMS5003;67164;51.202;0.278;2023-04-24T08:58:51;22;21;
77974;PMS5003;67164;51.202;0.278;2023-04-24T09:01:16;22;19;
77974;PMS5003;67164;51.202;0.278;2023-04-24T09:03:42;19;19;
77974;PMS5003;67164;51.202;0.278;2023-04-24T09:06:07;33;28;
77974;PMS5003;67164;51.202;0.278;2023-04-24T09:08:33;24;18;
77974;PMS5003;67164;51.202;0.278;2023-04-24T09:10:58;20;17;
77974;PMS5003;67164;51.202;0.278;2023-04-24T09:13:23;22;18;
77974;PMS5003;67164;51.202;0.278;2023-04-24T09:15:49;22;17;
77974;PMS5003;67164;51.202;0.278;2023-04-24T09:18:15;17;15;
77974;PMS5003;67164;51.202;0.278;2023-04-24T09:23:05;20;16;
77974;PMS5003;67164;51.202;0.278;2023-04-24T09:25:32;16;15;
77974;PMS5003;67164;51.202;0.278;2023-04-24T09:28:00;13;13;
77974;PMS5003;67164;51.202;0.278;2023-04-24T09:30:23;19;16;
77974;PMS5003;67164;51.202;0.278;2023-04-24T09:32:48;14;13;
77974;PMS5003;67164;51.202;0.278;2023-04-24T09:35:14;16;13;
77974;PMS5003;67164;51.202;0.278;2023-04-24T09:37:40;20;14;
77974;PMS5003;67164;51.202;0.278;2023-04-24T09:40:07;19;13;
77974;PMS5003;67164;51.202;0.278;2023-04-24T09:42:31;15;14;
77974;PMS5003;67164;51.202;0.278;2023-04-24T09:44:57;13;13;
77974;PMS5003;67164;51.202;0.278;2023-04-24T09:47:22;10;9;
77974;PMS5003;67164;51.202;0.278;2023-04-24T09:49:48;13;12;
77974;PMS5003;67164;51.202;0.278;2023-04-24T09:52:14;10;10;
77974;PMS5003;67164;51.202;0.278;2023-04-24T09:54:40;11;11;
77974;PMS5003;67164;51.202;0.278;2023-04-24T09:57:07;14;11;
77974;PMS5003;67164;51.202;0.278;2023-04-24T09:59:31;12;12;
77974;PMS5003;67164;51.202;0.278;2023-04-24T10:01:57;13;11;
77974;PMS5003;67164;51.202;0.278;2023-04-24T10:04:23;10;10;
77974;PMS5003;67164;51.202;0.278;2023-04-24T10:06:49;12;10;
77974;PMS5003;67164;51.202;0.278;2023-04-24T10:09:15;15;14;
77974;PMS5003;67164;51.202;0.278;2023-04-24T10:11:42;14;13;
77974;PMS5003;67164;51.202;0.278;2023-04-24T10:14:06;16;15;
77974;PMS5003;67164;51.202;0.278;2023-04-24T10:16:32;18;14;
77974;PMS5003;67164;51.202;0.278;2023-04-24T10:18:57;18;17;
77974;PMS5003;67164;51.202;0.278;2023-04-24T10:21:23;16;12;
77974;PMS5003;67164;51.202;0.278;2023-04-24T10:23:48;19;17;
77974;PMS5003;67164;51.202;0.278;2023-04-24T10:26:13;20;19;
77974;PMS5003;67164;51.202;0.278;2023-04-24T10:28:39;50;45;
77974;PMS5003;67164;51.202;0.278;2023-04-24T10:31:05;37;37;
77974;PMS5003;67164;51.202;0.278;2023-04-24T10:33:30;42;38;
77974;PMS5003;67164;51.202;0.278;2023-04-24T10:35:56;34;32;
77974;PMS5003;67164;51.202;0.278;2023-04-24T10:38:22;37;36;
77974;PMS5003;67164;51.202;0.278;2023-04-24T10:40:47;37;37;
77974;PMS5003;67164;51.202;0.278;2023-04-24T10:43:13;31;31;
77974;PMS5003;67164;51.202;0.278;2023-04-24T10:45:39;30;29;
77974;PMS5003;67164;51.202;0.278;2023-04-24T10:48:04;28;26;
77974;PMS5003;67164;51.202;0.278;2023-04-24T10:50:41;30;28;
77974;PMS5003;67164;51.202;0.278;2023-04-24T11:00:13;23;23;
77974;PMS5003;67164;51.202;0.278;2023-04-24T11:02:38;23;23;
77974;PMS5003;67164;51.202;0.278;2023-04-24T11:05:03;20;19;
77974;PMS5003;67164;51.202;0.278;2023-04-24T11:07:28;20;18;
77974;PMS5003;67164;51.202;0.278;2023-04-24T11:09:57;19;17;
77974;PMS5003;67164;51.202;0.278;2023-04-24T11:12:20;20;18;
77974;PMS5003;67164;51.202;0.278;2023-04-24T11:17:26;13;13;
77974;PMS5003;67164;51.202;0.278;2023-04-24T11:19:38;14;14;
77974;PMS5003;67164;51.202;0.278;2023-04-24T11:22:03;16;16;
77974;PMS5003;67164;51.202;0.278;2023-04-24T11:24:29;13;12;
77974;PMS5003;67164;51.202;0.278;2023-04-24T11:26:55;12;12;
77974;PMS5003;67164;51.202;0.278;2023-04-24T11:29:20;12;11;
77974;PMS5003;67164;51.202;0.278;2023-04-24T11:31:46;11;11;
77974;PMS5003;67164;51.202;0.278;2023-04-24T11:34:12;13;13;
77974;PMS5003;67164;51.202;0.278;2023-04-24T11:36:37;13;13;
77974;PMS5003;67164;51.202;0.278;2023-04-24T11:39:03;11;10;
77974;PMS5003;67164;51.202;0.278;2023-04-24T11:41:29;13;12;
77974;PMS5003;67164;51.202;0.278;2023-04-24T11:43:54;10;9;
77974;PMS5003;67164;51.202;0.278;2023-04-24T11:46:21;12;11;
77974;PMS5003;67164;51.202;0.278;2023-04-24T11:48:46;11;10;
77974;PMS5003;67164;51.202;0.278;2023-04-24T11:51:11;9;9;
77974;PMS5003;67164;51.202;0.278;2023-04-24T11:53:36;7;7;
77974;PMS5003;67164;51.202;0.278;2023-04-24T11:56:02;8;8;
77974;PMS5003;67164;51.202;0.278;2023-04-24T11:58:28;9;8;
77974;PMS5003;67164;51.202;0.278;2023-04-24T12:00:56;7;7;
77974;PMS5003;67164;51.202;0.278;2023-04-24T12:03:20;7;7;
77974;PMS5003;67164;51.202;0.278;2023-04-24T12:05:45;10;9;
77974;PMS5003;67164;51.202;0.278;2023-04-24T12:08:11;8;8;
77974;PMS5003;67164;51.202;0.278;2023-04-24T12:10:37;9;9;
77974;PMS5003;67164;51.202;0.278;2023-04-24T12:13:03;12;8;
77974;PMS5003;67164;51.202;0.278;2023-04-24T12:15:28;9;9;
77974;PMS5003;67164;51.202;0.278;2023-04-24T12:17:55;9;9;
77974;PMS5003;67164;51.202;0.278;2023-04-24T12:20:23;7;7;
77974;PMS5003;67164;51.202;0.278;2023-04-24T12:22:46;12;8;
77974;PMS5003;67164;51.202;0.278;2023-04-24T12:25:12;8;8;
77974;PMS5003;67164;51.202;0.278;2023-04-24T12:27:37;10;8;
77974;PMS5003;67164;51.202;0.278;2023-04-24T12:30:04;11;9;
77974;PMS5003;67164;51.202;0.278;2023-04-24T12:32:29;9;7;
77974;PMS5003;67164;51.202;0.278;2023-04-24T12:34:55;6;6;
77974;PMS5003;67164;51.202;0.278;2023-04-24T12:37:21;7;7;
77974;PMS5003;67164;51.202;0.278;2023-04-24T12:42:12;9;7;
77974;PMS5003;67164;51.202;0.278;2023-04-24T12:44:38;9;7;
77974;PMS5003;67164;51.202;0.278;2023-04-24T12:47:04;8;7;
77974;PMS5003;67164;51.202;0.278;2023-04-24T12:49:30;10;8;
77974;PMS5003;67164;51.202;0.278;2023-04-24T12:51:56;11;10;
77974;PMS5003;67164;51.202;0.278;2023-04-24T12:54:21;7;7;
77974;PMS5003;67164;51.202;0.278;2023-04-24T12:56:47;9;9;
77974;PMS5003;67164;51.202;0.278;2023-04-24T12:59:13;9;8;
77974;PMS5003;67164;51.202;0.278;2023-04-24T13:01:39;9;7;
77974;PMS5003;67164;51.202;0.278;2023-04-24T13:04:05;8;8;
77974;PMS5003;67164;51.202;0.278;2023-04-24T13:06:30;8;7;
77974;PMS5003;67164;51.202;0.278;2023-04-24T13:08:56;8;8;
77974;PMS5003;67164;51.202;0.278;2023-04-24T13:11:22;8;8;
77974;PMS5003;67164;51.202;0.278;2023-04-24T13:13:48;8;8;
77974;PMS5003;67164;51.202;0.278;2023-04-24T13:16:14;9;7;
77974;PMS5003;67164;51.202;0.278;2023-04-24T13:18:40;11;11;
77974;PMS5003;67164;51.202;0.278;2023-04-24T13:21:05;10;8;
77974;PMS5003;67164;51.202;0.278;2023-04-24T13:23:31;8;7;
77974;PMS5003;67164;51.202;0.278;2023-04-24T13:25:57;7;7;
77974;PMS5003;67164;51.202;0.278;2023-04-24T13:28:23;7;7;
77974;PMS5003;67164;51.202;0.278;2023-04-24T13:30:49;6;6;
77974;PMS5003;67164;51.202;0.278;2023-04-24T13:33:14;9;9;
77974;PMS5003;67164;51.202;0.278;2023-04-24T13:35:40;7;7;
77974;PMS5003;67164;51.202;0.278;2023-04-24T13:38:06;8;8;
77974;PMS5003;67164;51.202;0.278;2023-04-24T13:40:32;7;7;
77974;PMS5003;67164;51.202;0.278;2023-04-24T13:42:58;6;6;
77974;PMS5003;67164;51.202;0.278;2023-04-24T13:45:23;8;7;
77974;PMS5003;67164;51.202;0.278;2023-04-24T13:47:49;8;8;
77974;PMS5003;67164;51.202;0.278;2023-04-24T13:50:15;7;7;
77974;PMS5003;67164;51.202;0.278;2023-04-24T13:52:41;8;7;
77974;PMS5003;67164;51.202;0.278;2023-04-24T13:55:07;8;8;
77974;PMS5003;67164;51.202;0.278;2023-04-24T13:57:32;9;9;
77974;PMS5003;67164;51.202;0.278;2023-04-24T13:59:58;7;7;
77974;PMS5003;67164;51.202;0.278;2023-04-24T14:02:24;11;8;
77974;PMS5003;67164;51.202;0.278;2023-04-24T14:04:50;7;6;
77974;PMS5003;67164;51.202;0.278;2023-04-24T14:07:15;8;7;
77974;PMS5003;67164;51.202;0.278;2023-04-24T14:09:41;10;8;
77974;PMS5003;67164;51.202;0.278;2023-04-24T14:12:07;9;9;
77974;PMS5003;67164;51.202;0.278;2023-04-24T14:14:33;8;8;
77974;PMS5003;67164;51.202;0.278;2023-04-24T14:16:59;7;7;
77974;PMS5003;67164;51.202;0.278;2023-04-24T14:19:24;10;9;
77974;PMS5003;67164;51.202;0.278;2023-04-24T14:21:50;7;7;
77974;PMS5003;67164;51.202;0.278;2023-04-24T14:24:16;8;8;
77974;PMS5003;67164;51.202;0.278;2023-04-24T14:26:42;9;9;
77974;PMS5003;67164;51.202;0.278;2023-04-24T14:29:08;11;9;
77974;PMS5003;67164;51.202;0.278;2023-04-24T14:31:33;7;7;
77974;PMS5003;67164;51.202;0.278;2023-04-24T14:33:59;8;8;
77974;PMS5003;67164;51.202;0.278;2023-04-24T14:36:25;10;8;
77974;PMS5003;67164;51.202;0.278;2023-04-24T14:38:51;11;10;
77974;PMS5003;67164;51.202;0.278;2023-04-24T14:41:17;9;9;
77974;PMS5003;67164;51.202;0.278;2023-04-24T14:43:43;8;8;
77974;PMS5003;67164;51.202;0.278;2023-04-24T14:46:08;7;7;
77974;PMS5003;67164;51.202;0.278;2023-04-24T14:48:34;10;8;
77974;PMS5003;67164;51.202;0.278;2023-04-24T14:51:00;11;9;
77974;PMS5003;67164;51.202;0.278;2023-04-24T14:53:26;9;9;
77974;PMS5003;67164;51.202;0.278;2023-04-24T14:55:52;10;9;
77974;PMS5003;67164;51.202;0.278;2023-04-24T14:58:17;9;8;
77974;PMS5003;67164;51.202;0.278;2023-04-24T15:00:43;9;9;
77974;PMS5003;67164;51.202;0.278;2023-04-24T15:03:09;9;8;
77974;PMS5003;67164;51.202;0.278;2023-04-24T15:05:35;11;8;
77974;PMS5003;67164;51.202;0.278;2023-04-24T15:08:01;9;9;
77974;PMS5003;67164;51.202;0.278;2023-04-24T15:10:27;10;9;
77974;PMS5003;67164;51.202;0.278;2023-04-24T15:12:52;12;11;
77974;PMS5003;67164;51.202;0.278;2023-04-24T15:15:18;9;9;
77974;PMS5003;67164;51.202;0.278;2023-04-24T15:17:44;10;10;
77974;PMS5003;67164;51.202;0.278;2023-04-24T15:20:10;10;10;
77974;PMS5003;67164;51.202;0.278;2023-04-24T15:22:35;10;8;
77974;PMS5003;67164;51.202;0.278;2023-04-24T15:25:01;9;9;
77974;PMS5003;67164;51.202;0.278;2023-04-24T15:27:27;9;9;
77974;PMS5003;67164;51.202;0.278;2023-04-24T15:29:53;9;9;
77974;PMS5003;67164;51.202;0.278;2023-04-24T15:32:19;10;8;
77974;PMS5003;67164;51.202;0.278;2023-04-24T15:34:45;9;9;
77974;PMS5003;67164;51.202;0.278;2023-04-24T15:37:11;10;8;
77974;PMS5003;67164;51.202;0.278;2023-04-24T15:39:36;8;8;
77974;PMS5003;67164;51.202;0.278;2023-04-24T15:42:02;9;8;
77974;PMS5003;67164;51.202;0.278;2023-04-24T15:44:28;11;9;
77974;PMS5003;67164;51.202;0.278;2023-04-24T15:46:54;8;8;
77974;PMS5003;67164;51.202;0.278;2023-04-24T15:49:19;9;9;
77974;PMS5003;67164;51.202;0.278;2023-04-24T15:51:45;9;9;
77974;PMS5003;67164;51.202;0.278;2023-04-24T15:54:11;10;10;
77974;PMS5003;67164;51.202;0.278;2023-04-24T15:56:37;9;9;
77974;PMS5003;67164;51.202;0.278;2023-04-24T15:59:03;6;6;
77974;PMS5003;67164;51.202;0.278;2023-04-24T16:01:28;9;9;
77974;PMS5003;67164;51.202;0.278;2023-04-24T16:03:54;9;7;
77974;PMS5003;67164;51.202;0.278;2023-04-24T16:06:20;8;7;
77974;PMS5003;67164;51.202;0.278;2023-04-24T16:08:46;8;8;
77974;PMS5003;67164;51.202;0.278;2023-04-24T16:11:12;9;9;
77974;PMS5003;67164;51.202;0.278;2023-04-24T16:13:37;13;12;
77974;PMS5003;67164;51.202;0.278;2023-04-24T16:16:03;28;25;
77974;PMS5003;67164;51.202;0.278;2023-04-24T16:18:29;31;29;
77974;PMS5003;67164;51.202;0.278;2023-04-24T16:20:54;38;37;
77974;PMS5003;67164;51.202;0.278;2023-04-24T16:23:20;44;40;
77974;PMS5003;67164;51.202;0.278;2023-04-24T16:25:45;38;37;
77974;PMS5003;67164;51.202;0.278;2023-04-24T16:28:11;42;40;
77974;PMS5003;67164;51.202;0.278;2023-04-24T16:30:36;49;45;
77974;PMS5003;67164;51.202;0.278;2023-04-24T16:33:02;40;40;